createdAt,value
2023-03-22T00:01:49.475Z,54.73
2023-03-22T00:04:18.433Z,55.70
2023-03-22T00:06:49.128Z,58.93
2023-03-22T00:09:18.471Z,61.43
2023-03-22T00:11:51.159Z,61.00
2023-03-22T00:14:20.600Z,56.40
2023-03-22T00:16:49.683Z,54.17
2023-03-22T00:19:18.846Z,52.77
2023-03-22T00:21:49.581Z,53.07
2023-03-22T00:24:18.694Z,52.37
2023-03-22T00:26:48.332Z,51.80
2023-03-22T00:29:17.719Z,54.17
2023-03-22T00:31:47.181Z,53.63
2023-03-22T00:34:16.173Z,54.17
2023-03-22T00:36:45.213Z,60.63
2023-03-22T00:39:15.957Z,57.97
2023-03-22T00:41:45.222Z,63.17
2023-03-22T00:44:14.115Z,56.13
2023-03-22T00:46:42.972Z,59.13
2023-03-22T00:49:12.609Z,61.53
2023-03-22T00:51:42.012Z,65.40
2023-03-22T00:54:11.149Z,68.40
2023-03-22T00:56:45.564Z,75.63
2023-03-22T00:59:16.808Z,82.80
2023-03-22T01:01:46.201Z,74.53
2023-03-22T01:04:18.375Z,69.53
2023-03-22T01:06:47.969Z,67.50
2023-03-22T01:09:16.896Z,68.67
2023-03-22T01:11:48.444Z,66.57
2023-03-22T01:14:17.433Z,68.83
2023-03-22T01:16:48.093Z,68.33
2023-03-22T01:19:17.268Z,68.90
2023-03-22T01:21:46.255Z,62.67
2023-03-22T01:24:15.851Z,59.03
2023-03-22T01:26:44.862Z,56.83
2023-03-22T01:29:15.885Z,57.43
2023-03-22T01:31:45.424Z,57.83
2023-03-22T01:34:15.048Z,56.67
2023-03-22T01:36:44.204Z,59.13
2023-03-22T01:39:13.464Z,57.53
2023-03-22T01:41:43.559Z,59.43
2023-03-22T01:44:19.832Z,62.10
2023-03-22T01:46:50.770Z,58.77
2023-03-22T01:49:25.235Z,57.63
2023-03-22T01:51:57.233Z,60.37
2023-03-22T01:54:59.006Z,60.50
2023-03-22T01:57:48.573Z,57.93
2023-03-22T02:00:24.783Z,58.00
2023-03-22T02:03:27.028Z,60.63
2023-03-22T02:05:56.495Z,57.33
2023-03-22T02:08:27.278Z,63.90
2023-03-22T02:11:02.246Z,63.73
2023-03-22T02:13:52.792Z,61.53
2023-03-22T02:16:56.383Z,62.83
2023-03-22T02:20:06.358Z,62.73
2023-03-22T02:23:17.167Z,59.70
2023-03-22T02:26:27.091Z,59.47
2023-03-22T02:29:02.035Z,56.93
2023-03-22T02:32:02.361Z,58.73
2023-03-22T02:34:49.244Z,59.47
2023-03-22T02:38:00.163Z,62.80
2023-03-22T02:40:36.133Z,69.73
2023-03-22T02:43:15.711Z,65.87
2023-03-22T02:45:49.394Z,65.33
2023-03-22T02:48:24.724Z,67.27
2023-03-22T02:50:56.450Z,63.37
2023-03-22T02:53:31.424Z,60.10
2023-03-22T02:56:05.033Z,62.73
2023-03-22T02:58:55.549Z,62.70
2023-03-22T03:01:27.428Z,61.73
2023-03-22T03:04:01.394Z,67.73
2023-03-22T03:06:38.965Z,75.33
2023-03-22T03:09:09.712Z,77.53
2023-03-22T03:11:40.275Z,70.33
2023-03-22T03:14:20.751Z,73.17
2023-03-22T03:16:59.398Z,63.87
2023-03-22T03:19:34.661Z,64.57
2023-03-22T03:22:08.576Z,62.20
2023-03-22T03:24:46.773Z,61.67
2023-03-22T03:27:23.712Z,59.43
2023-03-22T03:29:59.583Z,63.27
2023-03-22T03:32:35.483Z,66.23
2023-03-22T03:35:22.748Z,61.17
2023-03-22T03:37:57.782Z,61.43
2023-03-22T03:40:32.211Z,68.43
2023-03-22T03:43:06.498Z,67.37
2023-03-22T03:45:37.850Z,66.93
2023-03-22T03:48:10.161Z,70.73
2023-03-22T03:50:40.219Z,82.70
2023-03-22T03:53:09.679Z,73.60
2023-03-22T03:55:38.623Z,71.17
2023-03-22T03:58:09.909Z,73.43
2023-03-22T04:00:39.772Z,65.67
2023-03-22T04:03:27.507Z,62.10
2023-03-22T04:06:11.616Z,62.77
2023-03-22T04:08:46.543Z,60.47
2023-03-22T04:11:18.169Z,59.30
2023-03-22T04:13:56.596Z,61.60
2023-03-22T04:16:26.064Z,66.00
2023-03-22T04:18:55.471Z,63.37
2023-03-22T04:21:24.675Z,166.67
2023-03-22T04:23:59.205Z,87.33
2023-03-22T04:26:31.045Z,60.63
2023-03-22T04:29:27.517Z,69.20
2023-03-22T04:32:02.834Z,76.00
2023-03-22T04:34:42.179Z,69.93
2023-03-22T04:37:16.738Z,81.47
2023-03-22T04:39:53.756Z,73.17
2023-03-22T04:42:38.042Z,73.97
2023-03-22T04:45:18.931Z,68.73
2023-03-22T04:47:56.266Z,65.43
2023-03-22T04:50:28.434Z,62.97
2023-03-22T04:53:02.148Z,58.13
2023-03-22T04:55:34.320Z,56.43
2023-03-22T04:58:04.207Z,57.30
2023-03-22T05:00:34.780Z,54.93
2023-03-22T05:03:04.664Z,56.37
2023-03-22T05:05:52.818Z,53.10
2023-03-22T05:08:25.161Z,53.17
2023-03-22T05:11:15.441Z,53.03
2023-03-22T05:13:50.141Z,57.90
2023-03-22T05:16:20.871Z,57.67
2023-03-22T05:18:54.698Z,55.30
2023-03-22T05:21:28.522Z,59.37
2023-03-22T05:24:00.975Z,59.63
2023-03-22T05:26:30.147Z,58.60
2023-03-22T05:28:59.219Z,51.33
2023-03-22T05:31:49.709Z,56.50
2023-03-22T05:34:20.611Z,52.93
2023-03-22T05:36:51.682Z,54.97
2023-03-22T05:39:31.612Z,53.30
2023-03-22T05:42:01.524Z,51.80
2023-03-22T05:44:30.702Z,51.90
2023-03-22T05:47:08.566Z,53.37
2023-03-22T05:49:41.827Z,55.50
2023-03-22T05:52:11.212Z,52.17
2023-03-22T05:54:51.204Z,60.43
2023-03-22T05:57:20.111Z,51.97
2023-03-22T05:59:49.337Z,50.80
2023-03-22T06:02:27.429Z,51.77
2023-03-22T06:04:56.562Z,51.53
2023-03-22T06:07:27.278Z,51.73
2023-03-22T06:09:58.810Z,48.90
2023-03-22T06:12:31.524Z,47.60
2023-03-22T06:15:24.590Z,50.07
2023-03-22T06:18:10.028Z,52.20
2023-03-22T06:20:46.049Z,50.50
2023-03-22T06:23:20.224Z,54.97
2023-03-22T06:25:49.811Z,49.93
2023-03-22T06:28:19.444Z,48.93
2023-03-22T06:30:56.724Z,53.17
2023-03-22T06:33:38.123Z,54.43
2023-03-22T06:36:18.618Z,68.00
2023-03-22T06:39:09.638Z,64.17
2023-03-22T06:41:38.889Z,59.33
2023-03-22T06:44:08.122Z,51.07
2023-03-22T06:46:45.436Z,51.03
2023-03-22T06:49:28.205Z,49.33
2023-03-22T06:52:16.056Z,50.10
2023-03-22T06:54:45.121Z,53.47
2023-03-22T06:57:14.934Z,53.17
2023-03-22T06:59:44.004Z,52.90
2023-03-22T07:02:14.305Z,53.53
2023-03-22T07:04:52.068Z,52.77
2023-03-22T07:07:21.140Z,53.37
2023-03-22T07:09:50.750Z,58.10
2023-03-22T07:12:20.087Z,56.17
2023-03-22T07:14:49.638Z,57.63
2023-03-22T07:17:28.601Z,57.57
2023-03-22T07:19:59.207Z,61.30
2023-03-22T07:22:29.552Z,58.40
2023-03-22T07:25:01.290Z,57.73
2023-03-22T07:27:33.230Z,56.70
2023-03-22T07:30:03.589Z,57.27
2023-03-22T07:32:34.601Z,58.97
2023-03-22T07:35:12.836Z,57.87
2023-03-22T07:37:43.530Z,57.37
2023-03-22T07:40:21.864Z,58.67
2023-03-22T07:42:55.757Z,60.17
2023-03-22T07:45:43.747Z,61.47
2023-03-22T07:48:32.545Z,69.90
2023-03-22T07:51:26.496Z,57.60
2023-03-22T07:53:55.961Z,55.30
2023-03-22T07:56:25.377Z,54.23
2023-03-22T07:58:55.594Z,58.03
2023-03-22T08:01:43.665Z,56.83
2023-03-22T08:04:35.663Z,53.80
2023-03-22T08:07:15.903Z,56.23
2023-03-22T08:09:45.357Z,54.53
2023-03-22T08:12:14.630Z,52.93
2023-03-22T08:14:46.227Z,51.67
2023-03-22T08:17:20.844Z,50.20
2023-03-22T08:19:50.390Z,55.30
2023-03-22T08:22:30.289Z,53.80
2023-03-22T08:25:17.862Z,50.57
2023-03-22T08:27:54.377Z,47.83
2023-03-22T08:30:28.537Z,50.97
2023-03-22T08:32:57.663Z,53.53
2023-03-22T08:35:26.665Z,53.97
2023-03-22T08:37:58.181Z,54.90
2023-03-22T08:40:34.515Z,53.37
2023-03-22T08:43:05.020Z,54.97
2023-03-22T08:45:34.683Z,55.23
2023-03-22T08:48:10.522Z,56.53
2023-03-22T08:50:59.080Z,55.53
2023-03-22T08:53:42.191Z,55.37
2023-03-22T08:56:40.409Z,60.63
2023-03-22T08:59:28.148Z,57.70
2023-03-22T09:02:17.761Z,60.93
2023-03-22T09:04:47.446Z,62.87
2023-03-22T09:07:17.703Z,64.73
2023-03-22T09:09:53.833Z,76.13
2023-03-22T09:12:23.435Z,89.03
2023-03-22T09:14:53.850Z,93.93
2023-03-22T09:17:24.143Z,99.60
2023-03-22T09:20:06.031Z,108.70
2023-03-22T09:22:40.912Z,118.13
2023-03-22T09:25:13.532Z,127.63
2023-03-22T09:27:46.510Z,111.73
2023-03-22T09:30:16.181Z,95.60
2023-03-22T09:32:45.309Z,85.73
2023-03-22T09:35:20.254Z,83.30
2023-03-22T09:37:59.037Z,93.47
2023-03-22T09:40:33.398Z,88.67
2023-03-22T09:43:07.486Z,87.07
2023-03-22T09:45:41.196Z,83.03
2023-03-22T09:48:16.267Z,80.20
2023-03-22T09:50:50.036Z,78.40
2023-03-22T09:53:20.428Z,75.83
2023-03-22T09:55:57.758Z,74.30
2023-03-22T09:58:32.797Z,104.00
2023-03-22T10:01:06.895Z,78.73
2023-03-22T10:04:13.534Z,69.87
2023-03-22T10:06:46.299Z,73.70
2023-03-22T10:09:19.761Z,77.03
2023-03-22T10:12:00.466Z,73.57
2023-03-22T10:14:34.783Z,68.70
2023-03-22T10:17:08.036Z,65.33
2023-03-22T10:19:43.399Z,65.63
2023-03-22T10:22:17.073Z,66.70
2023-03-22T10:24:51.578Z,69.10
2023-03-22T10:27:24.514Z,68.40
2023-03-22T10:29:57.121Z,69.03
2023-03-22T10:32:31.711Z,64.80
2023-03-22T10:35:00.809Z,68.83
2023-03-22T10:37:34.525Z,66.20
2023-03-22T10:40:07.971Z,63.60
2023-03-22T10:42:41.425Z,64.83
2023-03-22T10:45:16.144Z,62.73
2023-03-22T10:47:51.591Z,64.00
2023-03-22T10:50:24.219Z,63.57
2023-03-22T10:52:58.319Z,64.23
2023-03-22T10:55:27.735Z,62.27
2023-03-22T10:58:13.477Z,62.10
2023-03-22T11:00:47.436Z,59.60
2023-03-22T11:03:29.942Z,59.97
2023-03-22T11:06:04.533Z,59.60
2023-03-22T11:08:41.537Z,60.93
2023-03-22T11:11:22.230Z,61.53
2023-03-22T11:14:01.797Z,62.27
2023-03-22T11:16:32.210Z,65.23
2023-03-22T11:19:04.284Z,69.23
2023-03-22T11:21:34.840Z,73.20
2023-03-22T11:24:07.429Z,76.13
2023-03-22T11:26:40.906Z,78.03
2023-03-22T11:29:18.086Z,84.13
2023-03-22T11:31:56.132Z,84.33
2023-03-22T11:34:28.132Z,89.93
2023-03-22T11:37:00.797Z,91.30
2023-03-22T11:39:31.110Z,93.63
2023-03-22T11:42:03.937Z,100.70
2023-03-22T11:44:38.383Z,98.70
2023-03-22T11:47:13.292Z,107.73
2023-03-22T11:49:48.521Z,112.63
2023-03-22T11:52:21.877Z,113.00
2023-03-22T11:54:52.472Z,101.20
2023-03-22T11:57:25.174Z,87.07
2023-03-22T12:00:01.632Z,90.00
2023-03-22T12:02:33.044Z,101.33
2023-03-22T12:05:09.735Z,100.97
2023-03-22T12:07:39.778Z,93.10
2023-03-22T12:10:15.036Z,95.40
2023-03-22T12:12:48.008Z,88.13
2023-03-22T12:15:23.464Z,86.63
2023-03-22T12:17:59.920Z,92.83
2023-03-22T12:20:39.646Z,92.93
2023-03-22T12:23:16.462Z,93.60
2023-03-22T12:25:49.830Z,94.03
2023-03-22T12:28:22.359Z,92.80
2023-03-22T12:30:56.481Z,92.23
2023-03-22T12:33:28.967Z,91.93
2023-03-22T12:36:00.141Z,97.57
2023-03-22T12:38:38.647Z,94.50
2023-03-22T12:41:12.873Z,87.40
2023-03-22T12:43:51.134Z,75.57
2023-03-22T12:46:25.397Z,73.90
2023-03-22T12:49:02.481Z,76.97
2023-03-22T12:51:31.526Z,78.97
2023-03-22T12:54:03.167Z,79.37
2023-03-22T12:56:38.445Z,80.13
2023-03-22T12:59:14.184Z,84.20
2023-03-22T13:01:51.571Z,92.93
2023-03-22T13:04:32.851Z,103.90
2023-03-22T13:07:48.443Z,92.00
2023-03-22T13:10:48.035Z,90.27
2023-03-22T13:13:46.326Z,90.97
2023-03-22T13:16:34.939Z,84.43
2023-03-22T13:19:27.013Z,79.90
2023-03-22T13:22:16.744Z,78.00
2023-03-22T13:25:01.311Z,79.83
2023-03-22T13:27:43.829Z,76.67
2023-03-22T13:30:23.873Z,71.07
2023-03-22T13:32:56.551Z,59.10
2023-03-22T13:35:30.035Z,57.30
2023-03-22T13:38:04.316Z,54.47
2023-03-22T13:40:38.126Z,54.07
2023-03-22T13:43:24.728Z,54.60
2023-03-22T13:46:08.655Z,53.63
2023-03-22T13:48:46.003Z,53.50
2023-03-22T13:51:22.758Z,53.80
2023-03-22T13:54:00.562Z,54.30
2023-03-22T13:56:34.852Z,53.03
2023-03-22T13:59:05.628Z,58.20
2023-03-22T14:01:37.713Z,60.40
2023-03-22T14:04:12.478Z,79.60
2023-03-22T14:06:53.016Z,60.00
2023-03-22T14:09:28.440Z,57.53
2023-03-22T14:12:04.874Z,59.33
2023-03-22T14:14:41.679Z,57.33
2023-03-22T14:17:19.467Z,57.73
2023-03-22T14:19:49.314Z,51.97
